Terminal Aerodrome Forecast
Issued by NWS Wichita, KS

Home | Current Version | Previous Version | Text Only | Print | Product List | Glossary On
Versions: 1 2 3 4 5 6 7 8 9 10 11 12 13 14 15 16 17 18
000
FTUS43 KICT 211300 AAB
TAFICT
TAF AMD
KICT 211332Z 2114/2212 18012KT 3SM BR BKN006
     FM211400 18012G18KT P6SM SKC
     FM211600 19015G25KT P6SM FEW050
     FM220300 18012KT P6SM FEW250=

USA.gov is the U.S. government's official web portal to all federal, state and local government web resources and services.